createdAt,value
2022-09-29T00:00:43.796Z,6.08
2022-09-29T00:03:10.509Z,5.90
2022-09-29T00:05:37.067Z,6.11
2022-09-29T00:08:03.597Z,6.19
2022-09-29T00:10:30.183Z,6.13
2022-09-29T00:12:56.790Z,6.19
2022-09-29T00:15:23.301Z,6.02
2022-09-29T00:18:12.206Z,6.20
2022-09-29T00:20:36.469Z,6.32
2022-09-29T00:23:03.370Z,6.13
2022-09-29T00:25:30.178Z,6.13
2022-09-29T00:27:56.725Z,6.14
2022-09-29T00:30:23.242Z,6.10
2022-09-29T00:32:49.709Z,6.21
2022-09-29T00:35:18.053Z,6.26
2022-09-29T00:37:44.968Z,6.28
2022-09-29T00:40:11.963Z,6.18
2022-09-29T00:42:38.494Z,6.11
2022-09-29T00:45:12.874Z,6.07
2022-09-29T00:47:43.041Z,5.98
2022-09-29T00:50:12.373Z,6.03
2022-09-29T00:52:43.388Z,6.02
2022-09-29T00:55:13.996Z,5.93
2022-09-29T00:57:46.865Z,5.97
2022-09-29T01:00:14.048Z,5.95
2022-09-29T01:02:46.993Z,5.89
2022-09-29T01:05:16.285Z,5.84
2022-09-29T01:07:46.303Z,5.60
2022-09-29T01:10:14.589Z,5.78
2022-09-29T01:12:41.505Z,5.70
2022-09-29T01:15:08.067Z,5.81
2022-09-29T01:17:34.558Z,5.81
2022-09-29T01:20:07.359Z,5.84
2022-09-29T01:22:33.769Z,5.77
2022-09-29T01:25:11.356Z,5.65
2022-09-29T01:27:37.876Z,5.94
2022-09-29T01:30:04.387Z,5.94
2022-09-29T01:32:36.933Z,5.99
2022-09-29T01:35:09.992Z,5.87
2022-09-29T01:37:39.523Z,5.77
2022-09-29T01:40:12.014Z,5.91
2022-09-29T01:43:01.170Z,5.85
2022-09-29T01:45:30.669Z,5.85
2022-09-29T01:48:00.399Z,5.93
2022-09-29T01:50:32.512Z,5.96
2022-09-29T01:53:05.135Z,5.91
2022-09-29T01:55:33.579Z,5.74
2022-09-29T01:58:05.438Z,5.76
2022-09-29T02:00:35.294Z,5.81
2022-09-29T02:03:19.721Z,5.91
2022-09-29T02:05:51.897Z,5.76
2022-09-29T02:08:32.941Z,5.62
2022-09-29T02:11:06.790Z,5.76
2022-09-29T02:13:41.103Z,5.74
2022-09-29T02:16:10.997Z,5.74
2022-09-29T02:19:03.711Z,5.74
2022-09-29T02:21:30.170Z,5.69
2022-09-29T02:23:56.819Z,5.65
2022-09-29T02:26:24.479Z,5.55
2022-09-29T02:28:52.469Z,5.69
2022-09-29T02:31:19.273Z,5.64
2022-09-29T02:33:45.775Z,5.67
2022-09-29T02:36:15.286Z,5.76
2022-09-29T02:38:41.726Z,5.78
2022-09-29T02:41:28.553Z,5.70
2022-09-29T02:44:10.490Z,5.59
2022-09-29T02:46:48.622Z,5.51
2022-09-29T02:49:38.134Z,5.56
2022-09-29T02:52:20.035Z,5.52
2022-09-29T02:54:46.487Z,5.48
2022-09-29T02:57:24.846Z,5.51
2022-09-29T03:00:06.782Z,5.39
2022-09-29T03:02:33.317Z,5.48
2022-09-29T03:04:59.931Z,5.16
2022-09-29T03:07:26.355Z,5.39
2022-09-29T03:09:53.097Z,5.43
2022-09-29T03:12:19.631Z,5.43
2022-09-29T03:14:46.191Z,5.52
2022-09-29T03:17:13.017Z,5.48
2022-09-29T03:19:39.672Z,5.62
2022-09-29T03:22:06.165Z,5.51
2022-09-29T03:24:32.697Z,5.55
2022-09-29T03:26:59.251Z,5.56
2022-09-29T03:29:25.700Z,5.69
2022-09-29T03:31:52.315Z,5.63
2022-09-29T03:34:19.031Z,5.60
2022-09-29T03:36:45.569Z,5.68
2022-09-29T03:39:12.244Z,5.50
2022-09-29T03:41:38.857Z,5.50
2022-09-29T03:44:05.281Z,5.27
2022-09-29T03:46:31.888Z,5.47
2022-09-29T03:48:58.475Z,5.76
2022-09-29T03:51:25.026Z,5.87
2022-09-29T03:53:51.531Z,5.93
2022-09-29T03:56:18.014Z,5.85
2022-09-29T03:58:44.539Z,5.85
2022-09-29T04:01:12.152Z,5.77
2022-09-29T04:03:38.749Z,5.91
2022-09-29T04:06:05.356Z,6.11
2022-09-29T04:08:31.847Z,6.13
2022-09-29T04:10:59.281Z,6.10
2022-09-29T04:13:25.847Z,5.92
2022-09-29T04:15:57.391Z,6.11
2022-09-29T04:18:24.299Z,6.03
2022-09-29T04:20:50.956Z,6.10
2022-09-29T04:23:17.786Z,6.12
2022-09-29T04:25:45.218Z,5.89
2022-09-29T04:28:13.171Z,6.06
2022-09-29T04:30:39.623Z,6.13
2022-09-29T04:33:06.139Z,6.10
2022-09-29T04:35:36.675Z,6.09
2022-09-29T04:38:03.479Z,6.12
2022-09-29T04:40:30.097Z,6.19
2022-09-29T04:42:56.729Z,6.15
2022-09-29T04:45:23.305Z,6.20
2022-09-29T04:47:49.815Z,6.21
2022-09-29T04:50:16.391Z,6.27
2022-09-29T04:52:43.517Z,6.32
2022-09-29T04:55:13.682Z,6.38
2022-09-29T04:57:41.595Z,6.36
2022-09-29T05:00:08.494Z,6.38
2022-09-29T05:02:35.642Z,6.36
2022-09-29T05:05:02.553Z,6.38
2022-09-29T05:07:29.473Z,6.37
2022-09-29T05:09:55.939Z,6.22
2022-09-29T05:12:22.483Z,6.15
2022-09-29T05:14:48.974Z,6.20
2022-09-29T05:17:15.442Z,6.15
2022-09-29T05:19:41.870Z,6.21
2022-09-29T05:22:08.409Z,6.15
2022-09-29T05:24:34.946Z,6.13
2022-09-29T05:27:01.492Z,6.23
2022-09-29T05:29:28.003Z,6.20
2022-09-29T05:31:54.773Z,6.29
2022-09-29T05:34:21.481Z,5.97
2022-09-29T05:36:48.071Z,5.83
2022-09-29T05:39:14.619Z,6.07
2022-09-29T05:41:41.205Z,6.14
2022-09-29T05:44:07.899Z,6.02
2022-09-29T05:46:36.349Z,6.08
2022-09-29T05:49:02.913Z,6.14
2022-09-29T05:51:29.548Z,6.25
2022-09-29T05:53:56.389Z,6.16
2022-09-29T05:56:26.539Z,6.13
2022-09-29T05:58:53.699Z,6.08
2022-09-29T06:01:21.344Z,6.20
2022-09-29T06:03:47.895Z,6.14
2022-09-29T06:06:20.412Z,6.17
2022-09-29T06:08:47.688Z,6.32
2022-09-29T06:11:18.451Z,6.35
2022-09-29T06:13:46.269Z,6.35
2022-09-29T06:16:14.200Z,6.47
2022-09-29T06:18:40.674Z,6.41
2022-09-29T06:21:11.553Z,6.51
2022-09-29T06:23:38.585Z,6.82
2022-09-29T06:26:06.489Z,6.49
2022-09-29T06:28:32.996Z,6.62
2022-09-29T06:31:00.796Z,6.57
2022-09-29T06:33:27.878Z,6.69
2022-09-29T06:36:13.106Z,6.70
2022-09-29T06:38:39.643Z,6.77
2022-09-29T06:41:07.318Z,6.90
2022-09-29T06:43:33.975Z,6.91
2022-09-29T06:46:00.538Z,6.96
2022-09-29T06:48:27.337Z,6.94
2022-09-29T06:51:04.455Z,7.03
2022-09-29T06:53:38.433Z,7.13
2022-09-29T06:56:05.647Z,7.18
2022-09-29T06:58:32.155Z,7.16
2022-09-29T07:01:02.319Z,7.16
2022-09-29T07:03:29.734Z,7.12
2022-09-29T07:06:18.305Z,7.26
2022-09-29T07:08:42.968Z,7.21
2022-09-29T07:11:10.460Z,7.25
2022-09-29T07:13:37.023Z,7.41
2022-09-29T07:16:06.771Z,7.25
2022-09-29T07:18:35.017Z,7.31
2022-09-29T07:21:01.669Z,7.48
2022-09-29T07:23:28.870Z,7.52
2022-09-29T07:25:55.351Z,7.58
2022-09-29T07:28:21.911Z,7.84
2022-09-29T07:31:08.288Z,7.89
2022-09-29T07:33:39.350Z,7.94
2022-09-29T07:36:06.134Z,7.90
2022-09-29T07:38:33.132Z,8.01
2022-09-29T07:41:01.313Z,8.04
2022-09-29T07:43:28.059Z,8.16
2022-09-29T07:45:54.590Z,8.19
2022-09-29T07:48:21.160Z,8.36
2022-09-29T07:50:47.709Z,8.55
2022-09-29T07:53:14.955Z,8.56
2022-09-29T07:55:41.795Z,8.43
2022-09-29T07:58:14.275Z,8.33
2022-09-29T08:01:10.787Z,8.49
2022-09-29T08:03:39.490Z,8.50
2022-09-29T08:06:06.930Z,8.78
2022-09-29T08:08:35.103Z,8.98
2022-09-29T08:11:06.283Z,9.02
2022-09-29T08:13:40.808Z,9.02
2022-09-29T08:16:08.817Z,9.35
2022-09-29T08:18:35.699Z,9.53
2022-09-29T08:21:03.907Z,9.29
2022-09-29T08:23:35.527Z,8.96
2022-09-29T08:26:02.840Z,9.42
2022-09-29T08:28:32.444Z,9.56
2022-09-29T08:31:04.520Z,9.37
2022-09-29T08:33:31.731Z,9.46
2022-09-29T08:35:58.833Z,9.51
2022-09-29T08:38:26.356Z,9.50
2022-09-29T08:40:54.636Z,9.51
2022-09-29T08:43:34.453Z,9.38
2022-09-29T08:46:08.921Z,9.39
2022-09-29T08:48:45.680Z,9.27
2022-09-29T08:51:42.762Z,9.13
2022-09-29T08:54:16.649Z,8.83
2022-09-29T08:56:44.141Z,8.93
2022-09-29T08:59:11.392Z,9.18
2022-09-29T09:01:52.861Z,9.24
2022-09-29T09:04:36.163Z,8.96
2022-09-29T09:07:05.652Z,8.93
2022-09-29T09:09:32.091Z,9.36
2022-09-29T09:11:58.589Z,9.47
2022-09-29T09:14:31.264Z,9.63
2022-09-29T09:17:11.303Z,9.53
2022-09-29T09:19:44.011Z,9.75
2022-09-29T09:22:10.485Z,9.61
2022-09-29T09:24:43.028Z,9.76
2022-09-29T09:27:13.863Z,9.87
2022-09-29T09:29:42.794Z,9.87
2022-09-29T09:32:11.140Z,9.93
2022-09-29T09:34:49.807Z,9.98
2022-09-29T09:37:20.446Z,10.04
2022-09-29T09:39:49.591Z,10.07
2022-09-29T09:42:18.797Z,10.23
2022-09-29T09:44:51.988Z,10.09
2022-09-29T09:47:29.933Z,10.19
2022-09-29T09:49:58.886Z,10.23
2022-09-29T09:52:41.967Z,10.17
2022-09-29T09:55:15.428Z,10.30
2022-09-29T09:58:02.718Z,10.35
2022-09-29T10:00:33.240Z,10.49
2022-09-29T10:03:02.059Z,10.65
2022-09-29T10:05:41.129Z,10.88
2022-09-29T10:08:10.691Z,10.94
2022-09-29T10:10:41.331Z,10.97
2022-09-29T10:13:14.929Z,11.07
2022-09-29T10:15:53.454Z,11.46
2022-09-29T10:18:19.931Z,11.25
2022-09-29T10:20:46.657Z,11.50
2022-09-29T10:23:18.865Z,11.36
2022-09-29T10:26:05.720Z,11.58
2022-09-29T10:28:47.284Z,11.93
2022-09-29T10:31:20.617Z,12.46
2022-09-29T10:33:49.027Z,12.45
2022-09-29T10:36:15.539Z,12.33
2022-09-29T10:38:46.026Z,12.30
2022-09-29T10:41:12.672Z,12.26
2022-09-29T10:43:40.554Z,12.10
2022-09-29T10:46:25.924Z,12.35
2022-09-29T10:49:14.006Z,13.08
2022-09-29T10:52:08.788Z,12.80
2022-09-29T10:54:36.719Z,13.36
2022-09-29T10:57:16.173Z,12.81
2022-09-29T10:59:49.693Z,12.33
2022-09-29T11:02:23.660Z,12.81
2022-09-29T11:04:51.419Z,12.83
2022-09-29T11:07:18.075Z,12.86
2022-09-29T11:09:44.921Z,12.88
2022-09-29T11:12:30.352Z,12.91
2022-09-29T11:14:56.861Z,12.98
2022-09-29T11:17:24.769Z,13.24
2022-09-29T11:19:59.392Z,13.09
2022-09-29T11:22:52.224Z,13.14
2022-09-29T11:25:23.103Z,13.21
2022-09-29T11:27:55.900Z,13.22
2022-09-29T11:30:27.574Z,12.71
2022-09-29T11:33:12.879Z,12.90
2022-09-29T11:35:55.047Z,13.06
2022-09-29T11:38:40.788Z,13.31
2022-09-29T11:41:29.495Z,12.96
2022-09-29T11:43:59.161Z,13.18
2022-09-29T11:46:26.022Z,13.08
2022-09-29T11:49:11.111Z,13.63
2022-09-29T11:51:37.655Z,13.48
2022-09-29T11:54:16.775Z,13.71
2022-09-29T11:56:44.346Z,13.77
2022-09-29T11:59:37.033Z,13.67
2022-09-29T12:02:21.959Z,13.80
2022-09-29T12:05:05.463Z,14.01
2022-09-29T12:07:45.293Z,13.75
2022-09-29T12:10:14.888Z,14.13
2022-09-29T12:12:44.539Z,13.75
2022-09-29T12:15:11.090Z,13.48
2022-09-29T12:17:42.079Z,13.83
2022-09-29T12:20:14.820Z,13.98
2022-09-29T12:22:44.910Z,14.22
2022-09-29T12:25:16.440Z,14.28
2022-09-29T12:27:45.268Z,14.30
2022-09-29T12:30:32.682Z,14.26
2022-09-29T12:33:17.846Z,14.11
2022-09-29T12:35:59.815Z,14.41
2022-09-29T12:38:32.463Z,14.51
2022-09-29T12:41:21.469Z,14.44
2022-09-29T12:43:51.855Z,14.91
2022-09-29T12:46:42.500Z,14.96
2022-09-29T12:49:17.893Z,14.92
2022-09-29T12:51:52.206Z,14.77
2022-09-29T12:54:29.935Z,14.60
2022-09-29T12:57:08.429Z,14.64
2022-09-29T12:59:49.743Z,14.60
2022-09-29T13:02:35.103Z,14.62
2022-09-29T13:05:16.973Z,14.68
2022-09-29T13:07:46.221Z,14.67
2022-09-29T13:10:31.383Z,14.50
2022-09-29T13:13:00.604Z,14.52
2022-09-29T13:15:46.419Z,14.43
2022-09-29T13:18:31.521Z,14.42
2022-09-29T13:21:05.077Z,14.34
2022-09-29T13:23:49.995Z,14.26
2022-09-29T13:26:26.387Z,14.48
2022-09-29T13:28:56.700Z,14.39
2022-09-29T13:31:33.774Z,14.20
2022-09-29T13:34:02.894Z,14.50
2022-09-29T13:36:37.102Z,14.98
2022-09-29T13:39:05.436Z,14.46
2022-09-29T13:41:31.861Z,15.13
2022-09-29T13:43:58.341Z,14.59
2022-09-29T13:46:30.884Z,14.87
2022-09-29T13:49:09.655Z,14.49
2022-09-29T13:51:55.789Z,14.88
2022-09-29T13:54:41.780Z,14.93
2022-09-29T13:57:27.442Z,14.36
2022-09-29T13:59:54.761Z,14.08
2022-09-29T14:02:30.161Z,14.35
2022-09-29T14:04:57.082Z,14.31
2022-09-29T14:07:35.906Z,14.34
2022-09-29T14:10:18.678Z,13.99
2022-09-29T14:12:49.113Z,14.37
2022-09-29T14:15:19.055Z,14.24
2022-09-29T14:18:00.530Z,13.91
2022-09-29T14:20:33.736Z,14.05
2022-09-29T14:23:05.396Z,14.18
2022-09-29T14:25:42.815Z,14.01
2022-09-29T14:28:14.828Z,14.05
2022-09-29T14:30:52.373Z,13.93
2022-09-29T14:33:27.499Z,14.24
2022-09-29T14:36:12.561Z,14.42
2022-09-29T14:38:41.603Z,14.29
2022-09-29T14:41:08.222Z,14.31
2022-09-29T14:43:42.480Z,13.78
2022-09-29T14:46:42.893Z,13.90
2022-09-29T14:49:47.756Z,14.07
2022-09-29T14:52:20.442Z,14.16
2022-09-29T14:55:01.447Z,14.20
2022-09-29T14:57:35.413Z,14.39
2022-09-29T15:00:04.998Z,14.31
2022-09-29T15:02:33.606Z,14.31
2022-09-29T15:05:29.970Z,14.32
2022-09-29T15:07:58.342Z,14.32
2022-09-29T15:10:30.662Z,14.27
2022-09-29T15:13:15.834Z,14.29
2022-09-29T15:15:43.651Z,14.33
2022-09-29T15:18:21.912Z,14.11
2022-09-29T15:20:59.631Z,14.10
2022-09-29T15:23:38.070Z,14.12
2022-09-29T15:26:04.821Z,14.02
2022-09-29T15:28:33.862Z,13.99
2022-09-29T15:31:05.008Z,13.89
2022-09-29T15:33:35.638Z,13.89
2022-09-29T15:36:07.007Z,13.83
2022-09-29T15:38:38.798Z,13.93
2022-09-29T15:41:29.181Z,13.82
2022-09-29T15:44:02.355Z,13.83
2022-09-29T15:47:02.479Z,13.64
2022-09-29T15:49:29.611Z,13.62
2022-09-29T15:51:57.559Z,13.55
2022-09-29T15:54:24.908Z,13.56
2022-09-29T15:57:10.286Z,13.45
2022-09-29T15:59:50.630Z,13.50
2022-09-29T16:02:23.812Z,13.51
2022-09-29T16:04:52.478Z,13.46
2022-09-29T16:07:21.275Z,13.34
2022-09-29T16:09:51.175Z,13.26
2022-09-29T16:12:20.790Z,13.16
2022-09-29T16:14:49.489Z,13.03
2022-09-29T16:17:16.610Z,12.96
2022-09-29T16:19:44.818Z,12.97
2022-09-29T16:22:18.701Z,12.95
2022-09-29T16:24:52.666Z,12.93
2022-09-29T16:27:40.583Z,12.81
2022-09-29T16:30:30.535Z,12.79
2022-09-29T16:33:02.429Z,12.64
2022-09-29T16:35:39.806Z,12.65
2022-09-29T16:38:34.428Z,12.58
2022-09-29T16:41:16.182Z,12.53
2022-09-29T16:43:44.978Z,12.50
2022-09-29T16:46:15.392Z,12.37
2022-09-29T16:48:44.575Z,12.48
2022-09-29T16:51:38.343Z,12.38
2022-09-29T16:54:05.522Z,12.36
2022-09-29T16:56:36.199Z,12.28
2022-09-29T16:59:16.440Z,12.28
2022-09-29T17:01:44.058Z,12.21
2022-09-29T17:04:11.054Z,12.16
2022-09-29T17:06:37.709Z,12.12
2022-09-29T17:09:05.215Z,12.16
2022-09-29T17:11:32.021Z,12.18
2022-09-29T17:13:58.468Z,12.18
2022-09-29T17:16:26.059Z,12.10
2022-09-29T17:18:53.568Z,12.05
2022-09-29T17:21:20.543Z,11.98
2022-09-29T17:23:47.007Z,12.01
2022-09-29T17:26:39.589Z,12.01
2022-09-29T17:29:06.216Z,11.87
2022-09-29T17:31:32.824Z,11.73
2022-09-29T17:33:59.430Z,11.58
2022-09-29T17:36:26.340Z,11.65
2022-09-29T17:38:53.199Z,11.59
2022-09-29T17:41:20.308Z,11.61
2022-09-29T17:43:47.576Z,11.65
2022-09-29T17:46:15.006Z,11.38
2022-09-29T17:48:41.779Z,11.50
2022-09-29T17:51:19.488Z,11.58
2022-09-29T17:53:47.191Z,11.29
2022-09-29T17:56:22.579Z,11.35
2022-09-29T17:58:49.477Z,11.42
2022-09-29T18:01:17.743Z,11.51
2022-09-29T18:03:44.851Z,11.54
2022-09-29T18:06:16.753Z,11.54
2022-09-29T18:08:43.177Z,11.48
2022-09-29T18:11:09.979Z,11.51
2022-09-29T18:13:36.432Z,11.32
2022-09-29T18:16:03.892Z,11.35
2022-09-29T18:18:30.609Z,11.43
2022-09-29T18:20:57.539Z,11.51
2022-09-29T18:23:24.215Z,11.46
2022-09-29T18:25:52.147Z,11.45
2022-09-29T18:28:19.051Z,11.49
2022-09-29T18:30:47.110Z,11.53
2022-09-29T18:33:15.099Z,11.52
2022-09-29T18:35:43.086Z,11.35
2022-09-29T18:38:09.972Z,11.43
2022-09-29T18:40:36.931Z,11.49
2022-09-29T18:43:04.229Z,11.50
2022-09-29T18:45:31.590Z,11.49
2022-09-29T18:47:59.217Z,11.48
2022-09-29T18:50:27.436Z,11.43
2022-09-29T18:52:54.452Z,11.43
2022-09-29T18:55:23.380Z,11.47
2022-09-29T18:57:50.268Z,11.50
2022-09-29T19:00:18.459Z,11.52
2022-09-29T19:02:45.911Z,11.46
2022-09-29T19:05:17.802Z,11.46
2022-09-29T19:07:44.865Z,11.37
2022-09-29T19:10:12.448Z,11.40
2022-09-29T19:12:38.918Z,11.25
2022-09-29T19:15:05.665Z,11.22
2022-09-29T19:17:32.199Z,11.32
2022-09-29T19:20:00.345Z,11.29
2022-09-29T19:22:29.199Z,11.17
2022-09-29T19:24:55.866Z,11.10
2022-09-29T19:27:22.311Z,11.07
2022-09-29T19:29:52.838Z,11.05
2022-09-29T19:32:19.725Z,10.97
2022-09-29T19:34:46.318Z,10.95
2022-09-29T19:37:12.957Z,10.87
2022-09-29T19:39:41.596Z,10.84
2022-09-29T19:42:11.650Z,10.81
2022-09-29T19:44:39.414Z,10.77
2022-09-29T19:47:06.765Z,10.81
2022-09-29T19:49:33.262Z,10.79
2022-09-29T19:51:59.803Z,10.80
2022-09-29T19:54:28.230Z,10.65
2022-09-29T19:56:56.015Z,10.57
2022-09-29T19:59:23.904Z,10.57
2022-09-29T20:01:51.054Z,10.52
2022-09-29T20:04:18.673Z,10.57
2022-09-29T20:06:45.874Z,10.70
2022-09-29T20:09:13.049Z,10.72
2022-09-29T20:11:40.567Z,10.72
2022-09-29T20:14:08.236Z,10.66
2022-09-29T20:16:36.784Z,10.64
2022-09-29T20:19:06.686Z,10.61
2022-09-29T20:21:33.545Z,10.48
2022-09-29T20:24:01.328Z,10.41
2022-09-29T20:26:28.656Z,10.24
2022-09-29T20:28:55.107Z,10.39
2022-09-29T20:31:23.327Z,10.46
2022-09-29T20:33:51.141Z,10.30
2022-09-29T20:36:17.785Z,10.29
2022-09-29T20:38:49.695Z,10.33
2022-09-29T20:41:16.949Z,10.31
2022-09-29T20:43:46.835Z,10.17
2022-09-29T20:46:14.072Z,10.11
2022-09-29T20:48:41.343Z,10.12
2022-09-29T20:51:13.577Z,10.11
2022-09-29T20:53:40.699Z,10.04
2022-09-29T20:56:08.631Z,10.04
2022-09-29T20:58:35.637Z,10.00
2022-09-29T21:01:08.157Z,9.89
2022-09-29T21:03:34.595Z,9.97
2022-09-29T21:06:01.062Z,9.96
2022-09-29T21:08:27.758Z,9.93
2022-09-29T21:11:04.975Z,9.90
2022-09-29T21:13:32.071Z,9.94
2022-09-29T21:15:59.197Z,9.98
2022-09-29T21:18:26.344Z,9.82
2022-09-29T21:20:57.729Z,9.85
2022-09-29T21:23:25.126Z,9.98
2022-09-29T21:29:19.546Z,10.02
2022-09-29T21:31:46.633Z,9.93
2022-09-29T21:34:14.121Z,9.93
2022-09-29T21:36:40.666Z,10.01
2022-09-29T21:39:08.890Z,9.98
2022-09-29T21:41:39.389Z,9.88
2022-09-29T21:44:09.299Z,10.02
2022-09-29T21:46:35.695Z,10.10
2022-09-29T21:49:03.704Z,10.12
2022-09-29T21:51:31.758Z,10.16
2022-09-29T21:53:58.962Z,10.13
2022-09-29T21:56:26.205Z,9.96
2022-09-29T21:58:53.803Z,9.98
2022-09-29T22:01:20.837Z,10.13
2022-09-29T22:03:48.879Z,10.12
2022-09-29T22:06:22.762Z,10.08
2022-09-29T22:08:49.550Z,9.96
2022-09-29T22:11:17.356Z,10.10
2022-09-29T22:13:43.941Z,10.01
2022-09-29T22:16:12.440Z,10.14
2022-09-29T22:18:42.452Z,9.99
2022-09-29T22:21:10.967Z,9.97
2022-09-29T22:23:37.691Z,10.08
2022-09-29T22:26:04.274Z,10.10
2022-09-29T22:28:30.865Z,10.14
2022-09-29T22:31:09.205Z,10.05
2022-09-29T22:33:36.243Z,9.97
2022-09-29T22:36:02.767Z,10.05
2022-09-29T22:38:29.973Z,10.01
2022-09-29T22:40:56.501Z,9.96
2022-09-29T22:43:23.014Z,10.03
2022-09-29T22:45:50.428Z,9.97
2022-09-29T22:48:17.579Z,10.01
2022-09-29T22:50:45.186Z,10.09
2022-09-29T22:53:11.774Z,10.05
2022-09-29T22:55:39.909Z,9.98
2022-09-29T22:58:06.237Z,10.02
2022-09-29T23:00:32.608Z,10.09
2022-09-29T23:02:58.943Z,10.11
2022-09-29T23:05:25.300Z,10.11
2022-09-29T23:07:51.647Z,10.07
2022-09-29T23:10:18.088Z,9.90
2022-09-29T23:12:44.915Z,10.04
2022-09-29T23:15:11.502Z,10.04
2022-09-29T23:17:37.820Z,10.04
2022-09-29T23:20:05.112Z,10.05
2022-09-29T23:22:31.978Z,10.00
2022-09-29T23:24:58.442Z,9.97
2022-09-29T23:27:25.030Z,10.06
2022-09-29T23:29:51.669Z,10.09
2022-09-29T23:32:18.729Z,9.95
2022-09-29T23:34:45.319Z,9.95
2022-09-29T23:37:11.694Z,10.02
2022-09-29T23:39:38.113Z,10.06
2022-09-29T23:42:04.747Z,9.85
2022-09-29T23:44:32.134Z,9.85
2022-09-29T23:46:58.669Z,9.92
2022-09-29T23:49:26.992Z,9.95
2022-09-29T23:51:54.535Z,10.05
2022-09-29T23:54:22.539Z,10.05
2022-09-29T23:56:49.785Z,9.90
2022-09-29T23:59:16.253Z,9.98
